createdAt,value
2022-12-06T00:02:22.336Z,-8.46
2022-12-06T00:04:52.130Z,-8.43
2022-12-06T00:07:24.654Z,-7.90
2022-12-06T00:09:55.121Z,-7.90
2022-12-06T00:12:26.196Z,-7.93
2022-12-06T00:14:58.034Z,-8.61
2022-12-06T00:17:29.628Z,-8.00
2022-12-06T00:19:59.463Z,-9.13
2022-12-06T00:22:29.996Z,-8.59
2022-12-06T00:25:02.574Z,-8.82
2022-12-06T00:27:36.970Z,-8.73
2022-12-06T00:30:07.508Z,-8.12
2022-12-06T00:32:39.515Z,-9.71
2022-12-06T00:35:09.673Z,-8.90
2022-12-06T00:37:40.429Z,-8.38
2022-12-06T00:40:11.273Z,-8.47
2022-12-06T00:42:47.603Z,-8.66
2022-12-06T00:45:21.428Z,-8.92
2022-12-06T00:47:54.301Z,-8.58
2022-12-06T00:50:24.100Z,-9.69
2022-12-06T00:52:55.051Z,-7.85
2022-12-06T00:55:25.097Z,-9.03
2022-12-06T00:57:56.244Z,-9.61
2022-12-06T01:00:26.466Z,-8.87
2022-12-06T01:03:02.216Z,-9.22
2022-12-06T04:28:57.601Z,-8.38
2022-12-06T04:31:45.673Z,-8.25
2022-12-06T04:34:32.844Z,-8.30
2022-12-06T04:37:19.713Z,-8.10
2022-12-06T04:39:49.067Z,-8.34
2022-12-06T04:42:45.972Z,-8.29
2022-12-06T04:45:16.934Z,-8.23
2022-12-06T04:47:47.619Z,-8.47
2022-12-06T04:50:16.962Z,-8.05
2022-12-06T04:52:46.441Z,-8.03
2022-12-06T04:55:15.598Z,-8.27
2022-12-06T04:57:44.711Z,-8.17
2022-12-06T05:00:14.708Z,-8.17
2022-12-06T05:02:45.590Z,-7.92
2022-12-06T05:05:14.696Z,-7.76
2022-12-06T05:07:43.649Z,-7.89
2022-12-06T05:10:13.305Z,-8.07
2022-12-06T05:12:42.226Z,-8.17
2022-12-06T05:15:14.667Z,-7.77
2022-12-06T05:17:46.201Z,-8.33
2022-12-06T05:20:15.454Z,-8.08
2022-12-06T05:22:44.537Z,-7.97
2022-12-06T05:25:13.475Z,-8.01
2022-12-06T05:27:42.347Z,-7.97
2022-12-06T05:30:12.653Z,-7.87
2022-12-06T05:32:41.512Z,-7.88
2022-12-06T05:35:12.621Z,-7.79
2022-12-06T05:37:41.446Z,-7.65
2022-12-06T05:40:11.813Z,-7.65
2022-12-06T05:42:41.581Z,-7.63
2022-12-06T05:45:11.628Z,-7.74
2022-12-06T05:47:41.027Z,-7.64
2022-12-06T05:50:12.420Z,-7.63
2022-12-06T05:52:41.449Z,-7.28
2022-12-06T05:55:10.782Z,-7.05
2022-12-06T05:57:45.498Z,-7.41
2022-12-06T06:00:17.774Z,-7.00
2022-12-06T06:02:47.271Z,-7.19
2022-12-06T06:05:17.809Z,-7.05
2022-12-06T06:07:47.068Z,-6.76
2022-12-06T06:10:17.095Z,-6.78
2022-12-06T06:12:46.530Z,-6.72
2022-12-06T06:15:16.414Z,-6.58
2022-12-06T06:17:45.739Z,-6.48
2022-12-06T06:20:15.092Z,-6.63
2022-12-06T06:22:45.681Z,-6.70
2022-12-06T06:25:15.034Z,-6.82
2022-12-06T06:27:44.326Z,-6.71
2022-12-06T06:30:15.008Z,-6.73
2022-12-06T06:32:44.362Z,-6.72
2022-12-06T06:35:13.129Z,-6.45
2022-12-06T06:37:42.184Z,-6.61
2022-12-06T06:40:12.954Z,-6.73
2022-12-06T06:42:41.762Z,-6.29
2022-12-06T06:45:11.515Z,-5.97
2022-12-06T06:47:40.295Z,-5.78
2022-12-06T06:50:10.111Z,-5.80
2022-12-06T06:52:38.994Z,-5.95
2022-12-06T06:55:08.673Z,-5.85
2022-12-06T06:57:41.082Z,-5.79
2022-12-06T07:00:11.601Z,-5.43
2022-12-06T07:02:40.321Z,-5.00
2022-12-06T07:05:09.521Z,-5.03
2022-12-06T07:07:38.634Z,-4.45
2022-12-06T07:10:11.788Z,-4.63
2022-12-06T07:12:42.064Z,-4.60
2022-12-06T07:15:12.179Z,-4.56
2022-12-06T07:17:40.984Z,-4.61
2022-12-06T07:20:10.617Z,-4.15
2022-12-06T07:22:39.738Z,-4.47
2022-12-06T07:25:10.819Z,-4.46
2022-12-06T07:27:41.222Z,-4.20
2022-12-06T07:30:15.801Z,-4.10
2022-12-06T07:32:46.009Z,-4.97
2022-12-06T07:35:14.972Z,-3.93
2022-12-06T13:45:50.938Z,-4.19
2022-12-06T13:48:39.868Z,-3.78
2022-12-06T13:51:13.425Z,-3.78
2022-12-06T13:54:31.297Z,-4.09
2022-12-06T13:57:03.875Z,-3.39
2022-12-06T13:59:38.728Z,-4.53
2022-12-06T14:02:53.814Z,-4.20
2022-12-06T14:06:07.479Z,-4.49
2022-12-06T14:08:40.649Z,-3.79
2022-12-06T14:11:17.459Z,-3.79
2022-12-06T14:13:48.798Z,-3.80
2022-12-06T14:16:34.122Z,-3.88
2022-12-06T14:19:33.097Z,-4.61
2022-12-06T14:22:04.733Z,-4.38
2022-12-06T14:24:36.216Z,-3.71
2022-12-06T14:27:07.835Z,-4.40
2022-12-06T14:29:36.870Z,-4.07
2022-12-06T14:32:07.131Z,-3.45
2022-12-06T14:34:38.237Z,-4.46
2022-12-06T14:37:21.983Z,-4.38
2022-12-06T14:39:54.555Z,-4.59
2022-12-06T14:42:41.336Z,-4.88
2022-12-06T14:45:15.984Z,-4.54
2022-12-06T14:47:46.274Z,-4.95
2022-12-06T14:50:28.929Z,-4.64
2022-12-06T14:53:02.162Z,-3.61
2022-12-06T14:55:33.079Z,-3.73
2022-12-06T14:58:04.253Z,-3.88
2022-12-06T15:00:37.494Z,-3.60
2022-12-06T15:03:32.366Z,-4.88
2022-12-06T15:06:19.497Z,-4.20
2022-12-06T15:08:55.263Z,-4.73
2022-12-06T15:12:03.582Z,-4.72
2022-12-06T15:14:47.996Z,-4.57
2022-12-06T15:17:18.736Z,-4.03
2022-12-06T15:19:49.571Z,-3.95
2022-12-06T15:22:24.915Z,-3.83
2022-12-06T15:24:58.033Z,-3.10
2022-12-06T15:27:28.373Z,-4.17
2022-12-06T15:29:57.633Z,-3.15
2022-12-06T15:32:27.533Z,-3.17
2022-12-06T15:34:56.669Z,-3.04
2022-12-06T15:37:44.949Z,-4.16
2022-12-06T15:40:17.504Z,-3.38
2022-12-06T15:42:46.906Z,-3.14
2022-12-06T15:45:17.227Z,-3.13
2022-12-06T15:47:47.202Z,-3.03
2022-12-06T15:50:17.264Z,-3.11
2022-12-06T15:52:46.368Z,-3.84
2022-12-06T15:55:19.836Z,-3.75
2022-12-06T15:57:49.008Z,-3.63
2022-12-06T16:00:18.284Z,-3.23
2022-12-06T16:02:47.491Z,-4.58
2022-12-06T16:05:18.293Z,-3.54
2022-12-06T16:07:47.593Z,-5.20
2022-12-06T16:10:22.573Z,-4.45
2022-12-06T16:13:15.013Z,-3.84
2022-12-06T16:15:44.654Z,-5.52
2022-12-06T16:18:13.849Z,-4.65
2022-12-06T16:20:43.203Z,-3.84
2022-12-06T16:23:56.547Z,-3.56
2022-12-06T16:26:22.970Z,-4.16
2022-12-06T16:28:52.420Z,-2.95
2022-12-06T16:31:22.567Z,-2.63
2022-12-06T22:30:47.793Z,-3.76
2022-12-06T22:33:27.141Z,-3.13
2022-12-06T22:36:09.194Z,-3.45
2022-12-06T22:38:48.473Z,-4.08
2022-12-06T22:41:18.597Z,-3.70
2022-12-06T22:43:56.070Z,-3.62
2022-12-06T22:46:31.899Z,-2.76
2022-12-06T22:49:02.474Z,-3.27
2022-12-06T22:51:33.188Z,-5.04
2022-12-06T22:54:10.400Z,-3.48
2022-12-06T22:56:44.435Z,-3.47
2022-12-06T22:59:13.449Z,-3.55
2022-12-06T23:01:50.202Z,-2.88
2022-12-06T23:04:19.269Z,-3.24
2022-12-06T23:06:52.672Z,-4.37
2022-12-06T23:09:22.144Z,-3.51
2022-12-06T23:11:51.512Z,-3.60
2022-12-06T23:14:20.845Z,-2.78
2022-12-06T23:16:51.455Z,-3.41
2022-12-06T23:19:20.465Z,-3.50
2022-12-06T23:21:51.974Z,-4.56
2022-12-06T23:24:22.373Z,-3.54
2022-12-06T23:26:57.533Z,-2.71
2022-12-06T23:29:27.238Z,-3.18
2022-12-06T23:31:57.648Z,-3.18
2022-12-06T23:34:27.300Z,-3.07
2022-12-06T23:36:57.393Z,-3.01
2022-12-06T23:39:26.313Z,-3.10
2022-12-06T23:41:55.398Z,-2.51
2022-12-06T23:44:25.336Z,-3.45
2022-12-06T23:46:54.599Z,-2.67
2022-12-06T23:49:24.927Z,-3.41
2022-12-06T23:51:54.122Z,-3.87
2022-12-06T23:54:23.091Z,-4.14
2022-12-06T23:56:52.112Z,-3.28
2022-12-06T23:59:21.781Z,-2.85
